Time;durP1;ratioP1;P1;durP2;ratioP2;P2;SDS_P1;SDS_P2;PMS_P1;PMS_P2;Temp;Humidity;BMP_temperature;BMP_pressure;BME280_temperature;BME280_humidity;BME280_pressure;Samples;Min_cycle;Max_cycle;Signal;HPM_P1;HPM_P2
2021/12/06 00:01:06;;;;;;;104.25;45.50;;;;;;;6.15;61.55;100501.94;5096852;28;20484;-70
2021/12/06 00:03:48;;;;;;;112.53;47.45;;;;;;;5.85;62.46;100519.03;5115733;28;20048;-70
2021/12/06 00:06:16;;;;;;;;;;;;;;;5.53;62.51;100504.59;5098462;28;20047;-70
2021/12/06 00:08:43;;;;;;;103.97;43.50;;;;;;;5.75;62.50;100512.72;5107926;28;19920;-70
2021/12/06 00:11:10;;;;;;;105.40;44.45;;;;;;;6.35;60.61;100511.09;5106683;28;20479;-70
2021/12/06 00:13:40;;;;;;;99.78;45.92;;;;;;;5.89;61.44;100512.59;5099617;28;20502;-70
2021/12/06 00:16:12;;;;;;;105.90;43.78;;;;;;;6.58;60.02;100512.91;5093893;28;20075;-70
2021/12/06 00:18:39;;;;;;;101.05;44.35;;;;;;;5.85;61.33;100507.59;5113512;28;20048;-70
2021/12/06 00:21:06;;;;;;;102.03;44.42;;;;;;;6.01;60.83;100507.41;5111931;28;20487;-70
2021/12/06 00:23:34;;;;;;;97.90;45.03;;;;;;;6.15;60.52;100502.78;5114908;28;20449;-70
2021/12/06 00:26:01;;;;;;;99.03;42.70;;;;;;;5.87;61.43;100503.91;5115069;28;20063;-70
2021/12/06 00:28:27;;;;;;;96.28;41.92;;;;;;;5.71;61.53;100508.56;5113812;28;20078;-70
2021/12/06 00:30:55;;;;;;;96.82;43.47;;;;;;;6.32;59.88;100504.22;5115348;28;20055;-70
2021/12/06 00:33:24;;;;;;;92.30;42.55;;;;;;;6.13;60.09;100506.50;5096292;28;20043;-70
2021/12/06 00:35:50;;;;;;;92.55;41.85;;;;;;;6.32;59.62;100508.66;5114773;28;20550;-70
2021/12/06 00:38:18;;;;;;;91.00;41.03;;;;;;;6.06;60.45;100508.75;5113955;28;20134;-70
2021/12/06 00:40:47;;;;;;;91.45;41.30;;;;;;;6.17;60.30;100508.81;5115363;28;20047;-70
2021/12/06 00:43:14;;;;;;;94.45;42.08;;;;;;;6.29;59.58;100511.53;5114287;28;20035;-70
2021/12/06 00:45:41;;;;;;;90.95;42.03;;;;;;;6.53;59.06;100520.31;5113666;28;20097;-70
2021/12/06 00:48:08;;;;;;;94.28;41.25;;;;;;;6.13;59.78;100519.72;5115568;28;20039;-70
2021/12/06 00:50:38;;;;;;;85.82;39.88;;;;;;;5.84;60.27;100524.44;5115295;28;20509;-70
2021/12/06 00:53:05;;;;;;;90.50;41.10;;;;;;;6.26;59.33;100528.47;5119128;28;20070;-70
2021/12/06 00:55:32;;;;;;;89.75;39.38;;;;;;;5.49;61.61;100530.41;5117153;28;20126;-70
2021/12/06 00:57:59;;;;;;;86.05;38.70;;;;;;;5.57;61.50;100532.50;5117271;28;20066;-70
2021/12/06 01:00:35;;;;;;;80.75;39.28;;;;;;;5.92;60.02;100537.94;5118023;28;20067;-70
2021/12/06 01:03:16;;;;;;;93.00;39.92;;;;;;;6.00;60.28;100545.41;5117797;28;20112;-70
2021/12/06 01:05:43;;;;;;;84.95;39.10;;;;;;;5.45;60.64;100545.63;5119211;28;20105;-70
2021/12/06 01:08:10;;;;;;;85.25;39.28;;;;;;;5.89;60.82;100556.72;5118093;28;20048;-70
2021/12/06 01:10:37;;;;;;;87.47;39.33;;;;;;;5.86;59.98;100560.41;5117596;28;20106;-70
2021/12/06 01:13:04;;;;;;;84.50;40.97;;;;;;;5.75;60.80;100562.97;5116670;28;20082;-70
2021/12/06 01:15:32;;;;;;;85.85;39.97;;;;;;;6.07;59.57;100567.81;5117036;28;20047;-70
2021/12/06 01:18:01;;;;;;;82.15;37.92;;;;;;;6.04;59.81;100568.03;5121666;27;20047;-70
2021/12/06 01:20:31;;;;;;;80.53;39.28;;;;;;;5.99;59.66;100580.72;5120458;27;20104;-70
2021/12/06 01:23:11;;;;;;;80.13;37.50;;;;;;;5.92;59.49;100580.28;5118610;28;20063;-70
2021/12/06 01:31:02;;;;;;;79.07;36.20;;;;;;;6.06;59.10;100600.50;5117862;28;20130;-70
2021/12/06 01:39:09;;;;;;;76.97;36.63;;;;;;;6.50;57.43;100601.78;5118178;28;20482;-70
2021/12/06 01:39:16;;;;;;;70.00;34.53;;;;;;;6.57;57.73;100603.03;5116044;27;20051;-70
2021/12/06 01:42:09;;;;;;;71.40;34.60;;;;;;;6.19;58.58;100611.91;5116717;28;20495;-70
2021/12/06 01:44:41;;;;;;;72.80;34.30;;;;;;;5.87;58.83;100615.00;5112390;28;20063;-70
2021/12/06 01:47:22;;;;;;;66.82;32.92;;;;;;;6.08;58.05;100611.84;5106802;28;20074;-70
2021/12/06 01:49:54;;;;;;;65.07;32.75;;;;;;;6.32;57.92;100610.09;5098697;28;20048;-70
2021/12/06 01:52:24;;;;;;;63.03;32.47;;;;;;;6.32;57.11;100618.03;5117091;28;20046;-70
2021/12/06 01:54:54;;;;;;;66.43;33.53;;;;;;;6.48;57.42;100614.28;5110812;28;20060;-70
2021/12/06 01:57:22;;;;;;;64.15;32.88;;;;;;;6.27;57.42;100622.84;5106671;28;20063;-70
2021/12/06 01:59:49;;;;;;;60.85;30.33;;;;;;;5.86;58.08;100623.06;5118365;28;20461;-70
2021/12/06 02:02:16;;;;;;;62.63;31.90;;;;;;;6.20;57.05;100618.94;5117509;28;20539;-70
2021/12/06 02:04:43;;;;;;;64.75;31.35;;;;;;;6.27;57.27;100621.97;5117182;28;20055;-70
2021/12/06 02:07:25;;;;;;;57.33;28.63;;;;;;;5.74;58.30;100624.72;5116687;28;20098;-70
2021/12/06 02:09:54;;;;;;;53.05;28.33;;;;;;;5.49;58.33;100621.13;5116840;28;20111;-69
2021/12/06 02:12:21;;;;;;;56.35;28.63;;;;;;;5.78;57.54;100620.91;5117468;28;20047;-70
2021/12/06 02:14:59;;;;;;;55.67;29.23;;;;;;;5.82;57.90;100610.97;5117054;28;20043;-70
2021/12/06 02:17:31;;;;;;;52.53;26.60;;;;;;;5.92;57.31;100612.94;5117530;28;20040;-70
2021/12/06 02:20:04;;;;;;;57.65;27.83;;;;;;;6.05;56.74;100614.69;5116104;28;20039;-70
2021/12/06 02:22:34;;;;;;;50.72;27.20;;;;;;;6.08;56.13;100612.69;5117382;28;20491;-70
2021/12/06 02:25:02;;;;;;;48.90;26.05;;;;;;;5.65;57.41;100614.81;5116979;28;20046;-70
2021/12/06 02:27:29;;;;;;;51.58;26.52;;;;;;;5.90;56.82;100620.09;5117292;28;20102;-70
2021/12/06 02:29:58;;;;;;;57.58;28.70;;;;;;;5.64;57.19;100621.03;5116073;28;20078;-70
2021/12/06 02:32:26;;;;;;;57.80;29.42;;;;;;;6.30;55.99;100622.59;5116494;28;20040;-70
2021/12/06 02:34:55;;;;;;;57.53;28.67;;;;;;;6.54;55.12;100619.13;5116269;28;20039;-70
2021/12/06 02:37:27;;;;;;;56.17;30.55;;;;;;;6.38;55.84;100614.97;5115443;28;20510;-70
2021/12/06 02:40:03;;;;;;;61.28;29.95;;;;;;;6.23;55.92;100626.63;5115289;28;20123;-70
2021/12/06 02:42:29;;;;;;;53.30;28.35;;;;;;;6.02;56.18;100622.84;5116129;28;20123;-70
2021/12/06 02:44:56;;;;;;;55.13;28.55;;;;;;;6.04;55.68;100627.09;5116944;28;20054;-70
2021/12/06 02:47:22;;;;;;;60.47;28.88;;;;;;;5.61;56.87;100634.44;5116956;28;20047;-70
2021/12/06 02:49:49;;;;;;;60.00;30.88;;;;;;;5.88;56.10;100637.00;5116288;28;20052;-70
2021/12/06 02:52:17;;;;;;;61.08;30.52;;;;;;;5.53;56.34;100634.13;5116396;28;20533;-70
2021/12/06 02:54:44;;;;;;;60.03;29.55;;;;;;;5.30;57.55;100639.19;5114971;28;20075;-69
2021/12/06 02:59:42;;;;;;;65.22;32.42;;;;;;;6.01;55.76;100634.41;5114942;28;20106;-70
2021/12/06 03:02:13;;;;;;;61.58;32.47;;;;;;;5.91;55.75;100648.22;5113459;28;20067;-70
2021/12/06 03:04:41;;;;;;;74.43;35.35;;;;;;;5.63;56.04;100643.97;5115210;28;20455;-70
2021/12/06 03:07:08;;;;;;;62.08;32.75;;;;;;;5.70;56.52;100647.06;5113899;28;20047;-70
2021/12/06 03:09:38;;;;;;;73.93;34.90;;;;;;;5.72;56.50;100653.94;5114794;28;20111;-70
2021/12/06 03:12:09;;;;;;;68.22;36.40;;;;;;;6.15;55.21;100651.00;5115159;28;20455;-70
2021/12/06 03:14:39;;;;;;;78.63;37.13;;;;;;;6.24;55.24;100660.09;5114283;28;20051;-70
2021/12/06 03:17:12;;;;;;;71.63;35.15;;;;;;;5.99;54.86;100660.09;5115852;28;20075;-70
2021/12/06 03:19:39;;;;;;;71.22;34.53;;;;;;;6.41;54.33;100659.75;5116009;28;20052;-70
2021/12/06 03:22:09;;;;;;;77.15;36.22;;;;;;;6.37;54.51;100668.00;5115913;28;20071;-70
2021/12/06 03:24:36;;;;;;;68.15;34.08;;;;;;;5.72;55.40;100659.22;5115382;28;20074;-71
2021/12/06 03:27:03;;;;;;;73.20;36.60;;;;;;;6.05;55.07;100667.63;5114828;28;20055;-70
2021/12/06 03:29:30;;;;;;;74.80;36.65;;;;;;;5.86;55.29;100668.88;5116346;28;20067;-70
2021/12/06 03:31:57;;;;;;;78.93;35.67;;;;;;;6.06;55.12;100669.31;5115595;28;20066;-70
2021/12/06 03:34:26;;;;;;;67.30;33.40;;;;;;;6.04;54.53;100668.59;5115445;28;20059;-70
2021/12/06 03:36:55;;;;;;;72.63;36.25;;;;;;;5.49;55.98;100671.34;5115686;28;20156;-70
2021/12/06 03:39:31;;;;;;;70.95;34.90;;;;;;;5.98;54.70;100674.28;5115168;28;20448;-70
2021/12/06 03:42:01;;;;;;;70.32;34.67;;;;;;;6.16;54.35;100684.44;5116129;28;20054;-70
2021/12/06 03:44:28;;;;;;;73.57;36.25;;;;;;;6.42;53.78;100687.91;5116452;28;20064;-70
2021/12/06 03:46:59;;;;;;;78.85;36.88;;;;;;;6.35;54.34;100684.00;5114145;28;20142;-71
2021/12/06 03:49:26;;;;;;;73.78;36.33;;;;;;;6.64;53.56;100689.03;5114031;28;20106;-71
2021/12/06 03:51:53;;;;;;;71.68;35.53;;;;;;;6.73;53.76;100692.84;5115243;28;20074;-71
2021/12/06 03:54:23;;;;;;;74.15;36.03;;;;;;;6.50;54.10;100695.31;5114921;28;20078;-70
2021/12/06 03:56:50;;;;;;;72.03;35.80;;;;;;;6.10;55.05;100697.28;5113944;28;20103;-70
2021/12/06 03:59:17;;;;;;;70.90;34.25;;;;;;;6.02;55.19;100705.72;5111774;28;20096;-71
2021/12/06 04:01:45;;;;;;;72.72;36.28;;;;;;;5.93;55.12;100707.22;5115710;28;20108;-70
2021/12/06 04:04:12;;;;;;;72.65;36.80;;;;;;;5.93;54.73;100709.84;5113364;28;20107;-70
2021/12/06 04:06:40;;;;;;;72.32;35.38;;;;;;;6.29;54.20;100699.47;5113316;27;20399;-70
2021/12/06 04:09:08;;;;;;;66.72;33.47;;;;;;;5.43;56.02;100708.78;5115443;28;20168;-70
2021/12/06 04:11:36;;;;;;;72.03;34.72;;;;;;;5.59;56.22;100721.00;5115674;28;20055;-71
2021/12/06 04:14:05;;;;;;;71.72;34.80;;;;;;;5.78;55.45;100725.88;5114941;28;20445;-71
2021/12/06 04:16:31;;;;;;;75.05;36.35;;;;;;;5.93;55.62;100733.66;5114891;28;20044;-71
2021/12/06 04:19:02;;;;;;;72.63;36.72;;;;;;;5.95;54.99;100739.69;5117283;28;20051;-71
2021/12/06 04:21:28;;;;;;;77.45;36.50;;;;;;;5.79;55.85;100743.47;5098093;28;20112;-71
2021/12/06 04:23:56;;;;;;;70.97;34.85;;;;;;;5.69;55.89;100744.06;5114332;28;20063;-71
2021/12/06 04:26:22;;;;;;;71.32;35.70;;;;;;;5.99;55.41;100744.78;5118832;28;20043;-71
2021/12/06 04:28:57;;;;;;;75.28;36.97;;;;;;;6.08;54.60;100738.88;5119019;28;20039;-70
2021/12/06 04:31:35;;;;;;;73.00;36.17;;;;;;;6.27;54.62;100744.59;5116980;28;20039;-70
2021/12/06 04:34:02;;;;;;;68.55;35.40;;;;;;;6.47;53.91;100742.34;5118168;28;20130;-71
2021/12/06 04:36:36;;;;;;;69.90;35.33;;;;;;;5.85;55.46;100758.91;5099713;28;20048;-71
2021/12/06 04:39:06;;;;;;;75.88;35.20;;;;;;;6.05;54.85;100763.72;5116961;28;20517;-70
2021/12/06 04:41:32;;;;;;;71.32;34.70;;;;;;;5.79;55.74;100760.19;5117494;28;20067;-70
2021/12/06 04:43:58;;;;;;;78.50;35.85;;;;;;;5.69;55.71;100769.66;5117225;28;20123;-70
2021/12/06 04:46:25;;;;;;;73.65;34.15;;;;;;;5.83;55.31;100768.75;5117146;28;20122;-71
2021/12/06 04:48:51;;;;;;;72.75;35.50;;;;;;;5.79;55.18;100768.13;5117586;28;20445;-71
2021/12/06 04:51:18;;;;;;;71.40;34.42;;;;;;;5.88;55.32;100772.75;5117922;28;20075;-71
2021/12/06 04:53:46;;;;;;;82.72;36.78;;;;;;;6.37;54.61;100776.56;5118246;28;20094;-71
2021/12/06 04:56:19;;;;;;;75.47;35.47;;;;;;;6.24;54.39;100781.03;5116922;28;20111;-71
2021/12/06 04:58:51;;;;;;;72.63;34.72;;;;;;;6.66;53.92;100774.53;5118055;28;20043;-71
2021/12/06 05:01:24;;;;;;;81.65;36.63;;;;;;;6.81;53.04;100776.09;5116821;28;20131;-71
2021/12/06 05:03:51;;;;;;;71.30;36.40;;;;;;;6.59;53.55;100778.56;5116012;28;20047;-71
2021/12/06 05:06:22;;;;;;;71.68;35.28;;;;;;;6.32;54.55;100782.19;5118093;28;20127;-70
2021/12/06 05:08:52;;;;;;;73.00;34.92;;;;;;;5.73;55.77;100781.75;5117036;28;20475;-70
2021/12/06 05:11:21;;;;;;;70.83;34.50;;;;;;;5.79;55.97;100786.63;5117845;28;20486;-70
2021/12/06 05:13:48;;;;;;;68.97;34.47;;;;;;;6.35;54.50;100791.72;5118149;28;20054;-70
2021/12/06 05:16:15;;;;;;;71.68;34.13;;;;;;;6.23;54.87;100792.53;5117680;27;20126;-71
2021/12/06 05:18:42;;;;;;;70.90;33.60;;;;;;;5.72;55.53;100795.91;5117960;28;20100;-71
2021/12/06 05:21:09;;;;;;;71.28;34.75;;;;;;;5.77;56.21;100793.81;5117666;28;20439;-70
2021/12/06 05:23:36;;;;;;;75.60;34.58;;;;;;;5.92;55.29;100797.22;5117473;28;20063;-70
2021/12/06 05:26:04;;;;;;;73.45;34.80;;;;;;;6.04;55.35;100800.91;5117223;28;20067;-70
2021/12/06 05:28:34;;;;;;;72.10;35.95;;;;;;;6.04;54.64;100806.19;5117690;28;20093;-70
2021/12/06 05:31:01;;;;;;;70.32;34.58;;;;;;;5.51;56.81;100807.88;5116329;28;20043;-71
2021/12/06 05:33:31;;;;;;;72.22;34.92;;;;;;;5.77;56.03;100816.75;5116645;28;20126;-70
2021/12/06 05:36:01;;;;;;;67.63;33.42;;;;;;;6.33;54.43;100815.63;5115949;28;20047;-70
2021/12/06 05:38:28;;;;;;;76.68;36.22;;;;;;;6.05;55.22;100808.72;5117273;28;20092;-71
2021/12/06 05:40:56;;;;;;;72.78;35.20;;;;;;;6.04;55.24;100812.31;5116791;28;20510;-70
2021/12/06 05:43:23;;;;;;;68.22;33.58;;;;;;;5.86;55.50;100813.53;5117012;28;20071;-70
2021/12/06 05:45:50;;;;;;;66.68;33.33;;;;;;;5.93;55.25;100817.50;5117811;27;20047;-70
2021/12/06 05:48:17;;;;;;;73.13;32.72;;;;;;;5.99;55.62;100818.84;5122639;27;20078;-70
2021/12/06 05:50:49;;;;;;;66.40;32.50;;;;;;;6.15;55.31;100819.53;5117012;28;20036;-71
2021/12/06 05:53:16;;;;;;;67.50;33.65;;;;;;;5.94;55.55;100821.81;5117308;28;20092;-71
2021/12/06 05:55:43;;;;;;;66.93;34.65;;;;;;;5.98;55.65;100827.75;5115821;28;20121;-70
2021/12/06 05:58:11;;;;;;;76.40;35.10;;;;;;;6.26;55.09;100830.25;5115586;28;20066;-71
2021/12/06 06:00:38;;;;;;;73.05;34.40;;;;;;;6.29;54.90;100834.47;5118046;28;20383;-71
2021/12/06 06:03:05;;;;;;;70.20;35.10;;;;;;;6.03;55.28;100836.25;5118697;28;20067;-71
2021/12/06 06:05:34;;;;;;;65.78;33.72;;;;;;;6.15;55.25;100843.34;5118460;28;20044;-71
2021/12/06 06:08:02;;;;;;;66.60;32.25;;;;;;;5.97;55.72;100844.59;5118010;28;20069;-70
2021/12/06 06:10:31;;;;;;;68.07;35.67;;;;;;;6.43;54.36;100850.28;5117153;28;20474;-70
2021/12/06 06:12:59;;;;;;;62.92;32.33;;;;;;;6.62;53.98;100856.03;5117901;28;20043;-71
2021/12/06 06:15:28;;;;;;;73.00;35.47;;;;;;;6.79;53.74;100852.22;5117252;28;20039;-71
2021/12/06 06:17:56;;;;;;;72.57;35.58;;;;;;;6.63;53.90;100852.41;5115585;28;20090;-70
2021/12/06 06:20:30;;;;;;;69.68;33.58;;;;;;;6.14;55.08;100850.44;5116713;28;20158;-70
2021/12/06 06:22:57;;;;;;;69.18;34.15;;;;;;;5.70;56.61;100856.00;5117493;28;20545;-70
2021/12/06 06:25:23;;;;;;;73.00;35.28;;;;;;;6.06;55.89;100857.19;5117982;28;20132;-70
2021/12/06 06:27:50;;;;;;;72.07;35.83;;;;;;;6.37;55.17;100864.81;5118241;28;20040;-71
2021/12/06 06:30:16;;;;;;;69.47;34.85;;;;;;;6.02;55.86;100874.22;5116314;28;20102;-71
2021/12/06 06:32:44;;;;;;;72.15;35.50;;;;;;;6.48;54.89;100873.78;5116422;28;20157;-72
2021/12/06 06:35:12;;;;;;;70.65;34.38;;;;;;;5.69;56.48;100875.47;5113114;28;20527;-70
2021/12/06 06:37:39;;;;;;;73.85;35.88;;;;;;;5.95;56.72;100882.56;5115480;28;20081;-71
2021/12/06 06:40:06;;;;;;;64.28;34.83;;;;;;;6.28;55.98;100872.50;5114698;28;20094;-71
2021/12/06 06:42:34;;;;;;;78.57;37.83;;;;;;;6.24;55.45;100882.44;5117070;28;20072;-71
2021/12/06 06:45:07;;;;;;;71.05;35.72;;;;;;;6.05;56.20;100885.44;5116994;28;20043;-70
2021/12/06 06:47:34;;;;;;;71.63;36.00;;;;;;;6.42;55.36;100885.66;5114667;28;20089;-70
2021/12/06 06:50:00;;;;;;;67.63;33.83;;;;;;;6.07;56.09;100896.81;5116136;28;20103;-70
2021/12/06 06:52:27;;;;;;;74.45;36.60;;;;;;;6.42;55.52;100886.50;5116201;28;20052;-70
2021/12/06 06:54:55;;;;;;;76.88;35.63;;;;;;;6.64;54.84;100895.63;5117249;28;20501;-70
2021/12/06 06:57:21;;;;;;;72.22;36.72;;;;;;;6.37;56.23;100896.56;5115265;28;20058;-71
2021/12/06 06:59:48;;;;;;;63.00;32.47;;;;;;;6.31;55.76;100898.78;5115366;28;20074;-70
2021/12/06 07:02:14;;;;;;;75.15;35.75;;;;;;;6.34;55.75;100912.66;5117197;28;20130;-70
2021/12/06 07:04:41;;;;;;;75.75;36.15;;;;;;;6.43;55.70;100909.38;5115324;27;20055;-71
2021/12/06 07:07:08;;;;;;;75.93;35.67;;;;;;;6.57;55.30;100912.91;5116627;28;20480;-71
2021/12/06 07:09:35;;;;;;;71.97;35.47;;;;;;;6.61;55.24;100917.03;5117180;28;20094;-71
2021/12/06 07:12:03;;;;;;;81.78;36.88;;;;;;;6.54;55.75;100911.28;5115458;28;20455;-71
2021/12/06 07:14:29;;;;;;;78.32;37.28;;;;;;;6.51;55.84;100911.53;5116093;28;20131;-71
2021/12/06 07:16:56;;;;;;;76.95;35.28;;;;;;;6.79;55.23;100914.91;5116155;28;20443;-71
2021/12/06 07:19:22;;;;;;;71.05;35.38;;;;;;;6.62;55.05;100913.44;5117335;28;20074;-72
2021/12/06 07:21:58;;;;;;;70.93;34.60;;;;;;;6.88;55.08;100912.50;5116453;28;20391;-71
2021/12/06 07:24:25;;;;;;;75.22;34.80;;;;;;;6.85;54.53;100909.22;5115510;27;20445;-72
2021/12/06 07:26:52;;;;;;;72.28;35.00;;;;;;;6.67;55.46;100911.31;5115769;28;20062;-71
2021/12/06 07:29:18;;;;;;;75.03;35.38;;;;;;;6.54;55.70;100921.03;5114147;28;20071;-70
2021/12/06 07:31:45;;;;;;;68.97;34.05;;;;;;;6.48;55.73;100921.44;5115734;28;20127;-72
2021/12/06 07:34:11;;;;;;;73.45;34.60;;;;;;;6.60;55.55;100925.94;5114651;28;20123;-71
2021/12/06 07:36:38;;;;;;;73.93;34.70;;;;;;;6.70;55.20;100928.81;5114743;28;20071;-70
2021/12/06 07:39:05;;;;;;;69.00;33.50;;;;;;;7.19;54.64;100923.63;5114623;28;20108;-70
2021/12/06 07:41:32;;;;;;;71.07;35.00;;;;;;;6.79;55.21;100923.75;5115869;28;20119;-70
2021/12/06 07:44:00;;;;;;;72.05;34.60;;;;;;;7.07;54.41;100924.50;5097851;28;20471;-70
2021/12/06 07:46:27;;;;;;;66.80;34.20;;;;;;;6.77;55.52;100916.84;5116183;28;20167;-70
2021/12/06 07:48:54;;;;;;;67.55;32.60;;;;;;;6.64;55.81;100917.66;5114873;28;20402;-70
2021/12/06 07:51:23;;;;;;;67.35;33.53;;;;;;;6.25;56.73;100926.50;5116079;28;20082;-70
2021/12/06 07:53:50;;;;;;;66.10;32.47;;;;;;;6.48;56.13;100926.75;5114342;28;20071;-70
2021/12/06 07:56:18;;;;;;;78.70;36.20;;;;;;;6.63;56.23;100923.09;5112456;28;20082;-70
2021/12/06 07:58:45;;;;;;;73.07;35.72;;;;;;;6.85;55.50;100923.28;5114998;28;20483;-70
2021/12/06 08:01:12;;;;;;;69.60;33.92;;;;;;;6.75;56.11;100929.34;5115410;28;20138;-70
2021/12/06 08:03:41;;;;;;;68.50;32.92;;;;;;;6.96;55.70;100927.00;5116383;28;20096;-70
2021/12/06 08:06:08;;;;;;;73.00;35.92;;;;;;;7.06;55.01;100930.72;5116013;28;20048;-70
2021/12/06 08:08:38;;;;;;;68.40;32.92;;;;;;;6.88;55.59;100933.69;5115342;28;20096;-71
2021/12/06 08:11:10;;;;;;;62.47;31.65;;;;;;;7.16;54.77;100934.44;5115199;28;20064;-70
2021/12/06 08:13:38;;;;;;;69.20;33.22;;;;;;;7.06;54.92;100933.38;5116167;28;20044;-70
2021/12/06 08:16:12;;;;;;;64.03;31.15;;;;;;;6.69;55.95;100935.91;5116466;28;20023;-70
2021/12/06 08:18:40;;;;;;;61.22;30.77;;;;;;;7.09;55.52;100941.13;5111882;28;20110;-73
2021/12/06 08:21:07;;;;;;;58.38;29.70;;;;;;;7.23;54.46;100948.94;5131586;28;20040;-72
2021/12/06 08:23:37;;;;;;;61.30;31.77;;;;;;;7.61;53.97;100950.72;5120550;28;20047;-72
2021/12/06 08:26:44;;;;;;;;;;;;;;;;;;;;;
2021/12/06 08:29:23;;;;;;;57.00;29.02;;;;;;;6.84;56.41;100949.91;5114120;28;20040;-72
2021/12/06 08:31:59;;;;;;;57.72;28.35;;;;;;;7.32;54.48;100945.66;5065173;28;20089;-72
2021/12/06 08:34:25;;;;;;;53.65;26.67;;;;;;;7.03;55.20;100944.19;5115651;28;20070;-72
2021/12/06 08:36:52;;;;;;;54.17;26.70;;;;;;;7.01;55.04;100946.13;5113029;28;20051;-72
2021/12/06 08:39:19;;;;;;;62.92;29.30;;;;;;;6.74;56.22;100954.97;5127206;28;20036;-72
2021/12/06 08:41:46;;;;;;;52.92;27.45;;;;;;;6.39;57.15;100955.56;5115898;28;20044;-72
2021/12/06 08:44:20;;;;;;;52.75;27.15;;;;;;;6.63;56.52;100953.06;5106933;28;20075;-72
2021/12/06 08:46:46;;;;;;;52.25;26.77;;;;;;;6.54;56.31;100952.81;5114278;28;20073;-72
2021/12/06 08:49:13;;;;;;;58.00;28.10;;;;;;;7.24;55.23;100955.97;5117258;28;20064;-72
2021/12/06 08:51:54;;;;;;;50.90;26.15;;;;;;;6.98;55.66;100955.13;5117493;28;20046;-72
2021/12/06 08:54:26;;;;;;;50.67;27.10;;;;;;;6.85;55.49;100956.91;5105343;28;20047;-72
2021/12/06 08:56:55;;;;;;;51.40;25.88;;;;;;;7.27;54.88;100963.69;5116849;28;20047;-73
2021/12/06 08:59:23;;;;;;;54.03;27.20;;;;;;;7.95;52.88;100958.91;5104279;28;20124;-72
2021/12/06 09:01:54;;;;;;;56.35;27.77;;;;;;;8.20;52.78;100974.72;5114963;28;20044;-72
2021/12/06 09:04:44;;;;;;;54.47;26.98;;;;;;;8.02;52.73;100973.41;5113604;28;20126;-72
2021/12/06 09:07:13;;;;;;;55.60;27.70;;;;;;;8.06;53.06;100980.19;5124769;28;20039;-72
2021/12/06 09:09:49;;;;;;;52.95;26.48;;;;;;;8.37;51.87;100976.13;5112771;28;20039;-72
2021/12/06 09:12:21;;;;;;;52.08;26.13;;;;;;;8.40;51.50;100980.41;5117857;28;20048;-72
2021/12/06 09:14:48;;;;;;;50.42;26.83;;;;;;;8.04;52.44;100976.81;5122039;27;20107;-72
2021/12/06 09:17:15;;;;;;;53.17;26.05;;;;;;;8.09;52.16;100972.00;5123242;27;20040;-72
2021/12/06 09:19:43;;;;;;;54.20;27.45;;;;;;;8.46;51.68;100972.84;5119452;28;20039;-72
2021/12/06 09:22:10;;;;;;;49.75;25.70;;;;;;;8.24;52.17;100978.88;5126629;27;20120;-72
2021/12/06 09:24:38;;;;;;;52.10;25.60;;;;;;;8.47;51.39;100977.19;5120025;27;20043;-72
2021/12/06 09:27:07;;;;;;;53.78;25.92;;;;;;;8.62;50.66;100975.19;5119201;28;20048;-72
2021/12/06 09:29:42;;;;;;;55.35;28.60;;;;;;;9.07;49.98;100977.09;5118820;28;20459;-72
2021/12/06 09:32:11;;;;;;;57.33;27.55;;;;;;;8.88;50.26;100977.69;5091154;28;20046;-72
2021/12/06 09:34:45;;;;;;;58.47;27.83;;;;;;;8.71;50.75;100982.47;5076548;28;20476;-75
2021/12/06 09:37:21;;;;;;;47.97;24.27;;;;;;;8.73;50.57;100985.03;5094204;28;20135;-72
2021/12/06 09:39:51;;;;;;;48.42;25.63;;;;;;;8.61;50.87;100978.81;5097291;28;20052;-72
2021/12/06 09:42:32;;;;;;;50.55;25.88;;;;;;;8.52;50.81;100979.47;5100119;28;20063;-72
2021/12/06 09:45:29;;;;;;;45.15;24.40;;;;;;;8.65;50.53;100990.03;5089188;28;20055;-72
2021/12/06 09:48:15;;;;;;;41.00;22.55;;;;;;;8.71;50.40;100993.09;5100857;28;20124;-72
2021/12/06 09:51:00;;;;;;;55.92;24.48;;;;;;;8.72;50.09;100996.59;5003933;28;20085;-72
2021/12/06 09:53:31;;;;;;;44.58;23.25;;;;;;;8.62;50.35;100984.97;5019392;28;20092;-72
2021/12/06 09:56:05;;;;;;;43.63;24.70;;;;;;;8.75;50.20;100983.09;5017924;28;20042;-72
2021/12/06 09:59:06;;;;;;;47.47;23.60;;;;;;;8.65;50.35;100984.72;5001236;28;20050;-72
2021/12/06 10:01:38;;;;;;;43.97;23.27;;;;;;;8.58;50.38;100989.66;4985643;28;21549;-72
2021/12/06 10:04:29;;;;;;;49.13;24.70;;;;;;;8.54;50.91;100991.69;4962954;28;20572;-72
2021/12/06 10:07:05;;;;;;;44.38;23.38;;;;;;;8.69;50.16;100988.84;4979436;28;20069;-72
2021/12/06 10:09:59;;;;;;;;;;;;;;;;;;;;;
2021/12/06 10:13:16;;;;;;;45.83;22.83;;;;;;;8.50;50.83;100994.72;4994284;28;20078;-72
2021/12/06 10:15:52;;;;;;;51.75;23.45;;;;;;;8.54;51.01;100986.38;4999995;28;20070;-72
2021/12/06 10:18:20;;;;;;;42.63;22.42;;;;;;;7.93;51.36;100977.59;4975892;28;20155;-73
2021/12/06 10:21:11;;;;;;;45.50;24.10;;;;;;;8.22;50.88;100978.13;4997957;28;20458;-72
2021/12/06 10:23:41;;;;;;;47.05;24.48;;;;;;;8.49;50.78;100977.09;4996062;28;20039;-73
2021/12/06 10:26:29;;;;;;;47.40;25.83;;;;;;;8.84;50.04;100978.91;4955257;28;20053;-72
2021/12/06 10:29:08;;;;;;;45.42;23.77;;;;;;;8.50;50.80;100978.78;5062825;28;20045;-73
2021/12/06 10:31:50;;;;;;;48.53;24.27;;;;;;;8.60;50.59;100978.94;5079020;28;20040;-72
2021/12/06 10:34:24;;;;;;;50.17;26.10;;;;;;;8.79;50.34;100969.44;5061158;28;20215;-73
2021/12/06 10:36:55;;;;;;;51.53;26.20;;;;;;;8.51;50.95;100972.47;5072066;28;20044;-72
2021/12/06 10:39:25;;;;;;;47.97;26.30;;;;;;;8.85;50.13;100960.16;5078412;28;20044;-73
2021/12/06 10:42:24;;;;;;;50.42;25.17;;;;;;;9.18;49.46;100964.69;5078493;28;20172;-75
2021/12/06 10:45:34;;;;;;;48.28;24.38;;;;;;;9.12;49.29;100959.84;5076965;28;20052;-73
2021/12/06 10:48:09;;;;;;;50.08;25.52;;;;;;;8.72;50.45;100954.06;4946774;28;20078;-72
2021/12/06 10:51:01;;;;;;;48.42;25.60;;;;;;;8.74;50.07;100946.84;4965449;28;20058;-73
2021/12/06 10:53:41;;;;;;;;;;;;;;;8.84;49.83;100947.00;4956932;28;20051;-72
2021/12/06 10:56:21;;;;;;;45.85;23.10;;;;;;;8.72;49.83;100954.06;4977853;28;19961;-72
2021/12/06 10:58:51;;;;;;;35.25;17.17;;;;;;;8.82;49.87;100949.75;4997221;28;20529;-73
2021/12/06 11:01:20;;;;;;;45.97;23.00;;;;;;;8.67;49.96;100948.28;5005650;28;20122;-72
2021/12/06 11:03:51;;;;;;;43.42;22.52;;;;;;;8.94;49.99;100951.47;4991383;28;20046;-73
2021/12/06 11:06:21;;;;;;;51.05;25.20;;;;;;;8.90;49.88;100942.06;5008589;28;20161;-72
2021/12/06 11:08:50;;;;;;;47.88;23.98;;;;;;;8.82;49.51;100945.28;4996485;28;20081;-73
2021/12/06 11:11:27;;;;;;;45.63;22.73;;;;;;;8.39;50.21;100947.69;4996927;28;20050;-72
2021/12/06 11:14:03;;;;;;;44.17;22.27;;;;;;;8.17;51.16;100948.38;4993855;28;20081;-72
2021/12/06 11:16:35;;;;;;;45.05;22.40;;;;;;;8.32;50.75;100947.28;4993396;28;20050;-72
2021/12/06 11:19:05;;;;;;;46.22;23.55;;;;;;;8.80;49.48;100938.41;4994207;28;20050;-73
2021/12/06 11:21:35;;;;;;;42.35;21.50;;;;;;;9.02;48.74;100942.91;4995433;28;20104;-72
2021/12/06 11:24:04;;;;;;;43.72;23.15;;;;;;;8.63;49.67;100926.41;5053281;28;20541;-72
2021/12/06 11:26:33;;;;;;;45.95;23.52;;;;;;;8.02;51.11;100929.13;5075592;28;20416;-72
2021/12/06 11:29:05;;;;;;;40.65;21.65;;;;;;;7.83;51.66;100932.31;5075560;28;20120;-72
2021/12/06 11:31:32;;;;;;;41.92;21.48;;;;;;;7.91;51.17;100925.59;5075391;28;20046;-73
2021/12/06 11:34:03;;;;;;;41.97;20.90;;;;;;;8.69;49.82;100920.59;5075376;28;20048;-72
2021/12/06 11:36:31;;;;;;;49.60;23.63;;;;;;;8.73;49.60;100924.75;5075619;28;20040;-72
2021/12/06 11:39:08;;;;;;;38.85;21.98;;;;;;;8.96;49.39;100922.09;5074643;28;20128;-72
2021/12/06 11:41:34;;;;;;;48.40;20.63;;;;;;;8.81;49.26;100918.81;5074703;28;20048;-73
2021/12/06 11:44:20;;;;;;;39.42;19.65;;;;;;;8.99;48.63;100929.84;5075087;28;20044;-72
2021/12/06 11:46:55;;;;;;;42.97;20.40;;;;;;;9.38;47.70;100915.22;5074657;28;20545;-73